createdAt,value
2024-03-06T00:00:23.845Z,10.38
2024-03-06T00:02:50.893Z,13.85
2024-03-06T00:05:17.767Z,15.02
2024-03-06T00:07:44.539Z,11.63
2024-03-06T00:10:11.361Z,14.50
2024-03-06T00:12:38.121Z,14.80
2024-03-06T00:15:05.164Z,14.85
2024-03-06T00:17:31.891Z,13.45
2024-03-06T00:19:58.643Z,18.40
2024-03-06T00:22:25.356Z,16.35
2024-03-06T00:24:53.102Z,13.50
2024-03-06T00:27:19.951Z,11.65
2024-03-06T00:29:46.603Z,10.77
2024-03-06T00:32:13.364Z,14.07
2024-03-06T00:34:40.668Z,10.85
2024-03-06T00:37:07.358Z,11.80
2024-03-06T00:39:33.997Z,11.75
2024-03-06T00:42:00.703Z,14.27
2024-03-06T00:44:27.324Z,11.93
2024-03-06T00:46:54.021Z,10.80
2024-03-06T00:49:20.833Z,9.43
2024-03-06T00:51:49.526Z,12.68
2024-03-06T00:54:17.452Z,10.15
2024-03-06T00:56:44.612Z,12.45
2024-03-06T00:59:11.738Z,7.47
2024-03-06T01:01:38.678Z,10.93
2024-03-06T01:04:05.504Z,12.75
2024-03-06T01:06:32.149Z,12.25
2024-03-06T01:08:59.443Z,13.55
2024-03-06T01:11:27.631Z,10.82
2024-03-06T01:13:54.916Z,12.05
2024-03-06T01:16:21.771Z,16.70
2024-03-06T01:18:48.587Z,8.68
2024-03-06T01:21:15.483Z,10.68
2024-03-06T01:23:42.253Z,7.90
2024-03-06T01:26:08.999Z,8.73
2024-03-06T01:28:35.774Z,13.15
2024-03-06T01:31:02.466Z,11.38
2024-03-06T01:33:29.144Z,9.68
2024-03-06T01:35:55.831Z,9.00
2024-03-06T01:38:22.889Z,8.68
2024-03-06T01:40:49.752Z,10.13
2024-03-06T01:43:24.456Z,10.38
2024-03-06T01:45:51.889Z,8.75
2024-03-06T01:48:20.315Z,22.48
2024-03-06T01:50:47.309Z,7.82
2024-03-06T01:53:16.823Z,13.48
2024-03-06T01:55:43.910Z,9.10
2024-03-06T01:58:10.894Z,9.73
2024-03-06T02:00:38.212Z,7.72
2024-03-06T02:03:05.260Z,10.80
2024-03-06T02:05:33.090Z,9.07
2024-03-06T02:08:03.629Z,8.90
2024-03-06T02:10:31.591Z,9.73
2024-03-06T02:12:58.995Z,11.40
2024-03-06T02:15:25.694Z,8.25
2024-03-06T02:17:53.299Z,9.27
2024-03-06T02:20:26.849Z,7.30
2024-03-06T02:22:53.612Z,8.25
2024-03-06T02:25:20.773Z,8.13
2024-03-06T02:27:49.411Z,11.65
2024-03-06T02:30:20.167Z,9.57
2024-03-06T02:32:46.852Z,10.55
2024-03-06T02:35:14.998Z,8.57
2024-03-06T02:37:48.191Z,8.07
2024-03-06T02:40:15.020Z,10.57
2024-03-06T02:42:41.724Z,7.35
2024-03-06T02:45:09.660Z,13.95
2024-03-06T02:47:36.448Z,19.02
2024-03-06T02:50:03.351Z,10.07
2024-03-06T02:52:30.091Z,9.30
2024-03-06T02:54:57.602Z,8.77
2024-03-06T02:57:24.315Z,10.73
2024-03-06T02:59:51.146Z,8.98
2024-03-06T03:02:18.106Z,12.73
2024-03-06T03:04:45.100Z,11.68
2024-03-06T03:07:11.863Z,11.52
2024-03-06T03:09:39.479Z,8.77
2024-03-06T03:12:07.183Z,9.75
2024-03-06T03:14:34.090Z,9.40
2024-03-06T03:17:02.025Z,14.32
2024-03-06T03:19:28.781Z,11.20
2024-03-06T03:21:55.479Z,9.45
2024-03-06T03:24:22.839Z,10.05
2024-03-06T03:26:49.676Z,11.10
2024-03-06T03:29:16.388Z,9.13
2024-03-06T03:31:43.670Z,9.48
2024-03-06T03:34:13.305Z,8.80
2024-03-06T03:36:43.785Z,10.45
2024-03-06T03:39:21.524Z,9.43
2024-03-06T03:41:49.658Z,8.68
2024-03-06T03:44:17.660Z,17.17
2024-03-06T03:46:44.964Z,9.77
2024-03-06T03:49:12.011Z,10.60
2024-03-06T03:51:40.295Z,8.63
2024-03-06T03:54:07.513Z,10.27
2024-03-06T03:56:34.682Z,12.70
2024-03-06T03:59:01.433Z,11.13
2024-03-06T04:01:28.929Z,9.15
2024-03-06T04:03:55.673Z,20.17
2024-03-06T04:06:22.375Z,15.95
2024-03-06T04:08:54.948Z,16.80
2024-03-06T04:11:21.774Z,15.07
2024-03-06T04:13:48.645Z,12.80
2024-03-06T04:16:20.851Z,19.77
2024-03-06T04:18:47.988Z,8.50
2024-03-06T04:21:15.922Z,14.15
2024-03-06T04:23:42.861Z,10.73
2024-03-06T04:26:09.727Z,11.20
2024-03-06T04:28:36.498Z,9.25
2024-03-06T04:31:03.235Z,8.90
2024-03-06T04:33:29.928Z,10.75
2024-03-06T04:35:57.198Z,9.40
2024-03-06T04:38:23.941Z,12.60
2024-03-06T04:40:50.793Z,9.85
2024-03-06T04:43:17.449Z,7.68
2024-03-06T04:45:44.064Z,6.97
2024-03-06T04:48:11.001Z,10.13
2024-03-06T04:50:37.692Z,9.25
2024-03-06T04:53:04.534Z,10.30
2024-03-06T04:55:31.880Z,13.20
2024-03-06T04:57:58.530Z,10.05
2024-03-06T05:00:25.561Z,11.40
2024-03-06T06:00:25.078Z,14.37
2024-03-06T06:02:52.250Z,13.35
2024-03-06T06:05:23.518Z,11.95
2024-03-06T06:07:54.241Z,11.80
2024-03-06T06:10:22.232Z,12.35
2024-03-06T06:12:50.126Z,10.55
2024-03-06T06:15:17.130Z,9.52
2024-03-06T06:17:45.730Z,17.45
2024-03-06T06:20:16.387Z,13.38
2024-03-06T06:22:43.898Z,9.20
2024-03-06T06:25:11.352Z,7.85
2024-03-06T06:27:39.204Z,11.13
2024-03-06T06:30:08.024Z,13.98
2024-03-06T06:32:35.425Z,11.38
2024-03-06T06:35:02.478Z,12.07
2024-03-06T06:37:29.209Z,10.88
2024-03-06T06:39:55.878Z,13.77
2024-03-06T06:42:22.594Z,9.85
2024-03-06T06:44:49.284Z,12.55
2024-03-06T06:47:16.023Z,11.20
2024-03-06T06:49:42.705Z,16.98
2024-03-06T06:52:09.382Z,12.02
2024-03-06T06:54:36.070Z,12.52
2024-03-06T06:57:04.404Z,13.27
2024-03-06T06:59:31.261Z,10.57
2024-03-06T07:01:58.171Z,12.02
2024-03-06T07:04:25.666Z,14.18
2024-03-06T07:06:52.561Z,16.30
2024-03-06T07:09:20.371Z,14.13
2024-03-06T07:11:47.176Z,16.15
2024-03-06T07:14:14.326Z,12.38
2024-03-06T07:16:44.828Z,11.18
2024-03-06T07:19:12.029Z,11.32
2024-03-06T07:21:38.875Z,9.00
2024-03-06T07:24:06.097Z,9.98
2024-03-06T07:26:36.357Z,14.68
2024-03-06T07:29:03.937Z,10.63
2024-03-06T07:31:30.816Z,12.45
2024-03-06T07:33:57.689Z,12.00
2024-03-06T07:36:24.495Z,13.10
2024-03-06T07:38:51.224Z,9.88
2024-03-06T07:41:17.895Z,15.70
2024-03-06T07:43:44.860Z,10.88
2024-03-06T07:46:12.295Z,10.55
2024-03-06T07:48:40.097Z,12.60
2024-03-06T07:51:08.262Z,10.73
2024-03-06T07:53:35.096Z,7.88
2024-03-06T07:56:02.232Z,13.15
2024-03-06T07:58:29.663Z,13.85
2024-03-06T08:00:57.392Z,13.32
2024-03-06T08:03:25.360Z,18.38
2024-03-06T08:05:55.573Z,8.48
2024-03-06T08:08:22.756Z,7.40
2024-03-06T08:10:50.172Z,10.05
2024-03-06T08:13:17.340Z,7.13
2024-03-06T08:15:45.725Z,13.13
2024-03-06T08:18:14.290Z,12.15
2024-03-06T08:20:41.663Z,8.52
2024-03-06T08:23:09.335Z,7.57
2024-03-06T08:25:36.200Z,7.22
2024-03-06T08:28:04.388Z,7.53
2024-03-06T08:30:33.907Z,7.90
2024-03-06T08:33:01.552Z,7.72
2024-03-06T08:35:28.745Z,10.80
2024-03-06T08:37:55.478Z,8.27
2024-03-06T08:40:22.713Z,10.65
2024-03-06T08:42:50.060Z,8.68
2024-03-06T08:45:20.239Z,7.45
2024-03-06T08:47:48.753Z,8.30
2024-03-06T08:50:16.145Z,20.30
2024-03-06T08:52:43.858Z,7.32
2024-03-06T08:55:10.867Z,8.10
2024-03-06T08:57:38.310Z,6.40
2024-03-06T09:00:13.470Z,5.55
2024-03-06T09:02:41.529Z,6.40
2024-03-06T09:05:11.405Z,10.27
2024-03-06T09:07:39.416Z,6.00
2024-03-06T09:10:09.400Z,8.00
2024-03-06T09:12:36.258Z,6.13
2024-03-06T09:15:03.968Z,7.78
2024-03-06T09:17:31.116Z,7.03
2024-03-06T09:20:08.015Z,7.25
2024-03-06T09:22:40.500Z,6.47
2024-03-06T09:25:08.444Z,8.45
2024-03-06T09:27:35.625Z,8.55
2024-03-06T09:30:04.152Z,7.82
2024-03-06T09:32:31.673Z,6.07
2024-03-06T09:35:00.014Z,9.82
2024-03-06T09:37:27.277Z,11.90
2024-03-06T09:39:53.917Z,10.07
2024-03-06T09:42:21.095Z,9.43
2024-03-06T09:44:49.042Z,7.35
2024-03-06T09:47:19.124Z,8.98
2024-03-06T09:49:45.952Z,6.82
2024-03-06T09:52:12.791Z,6.75
2024-03-06T09:54:40.553Z,11.93
2024-03-06T09:57:07.351Z,11.68
2024-03-06T09:59:34.449Z,11.18
2024-03-06T10:02:07.044Z,10.57
2024-03-06T10:04:35.385Z,9.30
2024-03-06T10:07:03.642Z,8.98
2024-03-06T10:09:34.357Z,9.50
2024-03-06T10:12:03.868Z,12.07
2024-03-06T10:14:33.776Z,9.60
2024-03-06T10:17:01.805Z,10.57
2024-03-06T10:19:30.697Z,9.63
2024-03-06T10:21:58.435Z,9.45
2024-03-06T10:24:27.154Z,10.82
2024-03-06T10:26:59.399Z,12.35
2024-03-06T10:29:28.054Z,9.38
2024-03-06T10:32:00.817Z,13.40
2024-03-06T10:34:29.091Z,11.57
2024-03-06T10:37:06.717Z,8.88
2024-03-06T10:39:39.631Z,8.32
2024-03-06T10:42:09.496Z,8.05
2024-03-06T10:44:38.129Z,11.85
2024-03-06T10:47:10.618Z,9.50
2024-03-06T10:49:39.252Z,7.15
2024-03-06T10:52:09.360Z,8.85
2024-03-06T10:54:38.081Z,7.75
2024-03-06T10:57:05.489Z,9.32
2024-03-06T10:59:32.531Z,9.70
2024-03-06T11:02:03.413Z,14.13
2024-03-06T11:04:34.815Z,8.77
2024-03-06T11:07:03.397Z,10.25
2024-03-06T11:09:36.160Z,11.00
2024-03-06T11:12:03.741Z,9.70
2024-03-06T11:14:33.005Z,11.43
2024-03-06T11:17:06.037Z,10.45
2024-03-06T11:19:34.175Z,9.27
2024-03-06T11:22:01.046Z,14.20
2024-03-06T11:24:36.818Z,9.18
2024-03-06T11:27:06.529Z,11.25
2024-03-06T11:30:17.734Z,10.23
2024-03-06T11:33:01.990Z,9.45
2024-03-06T11:35:30.054Z,9.25
2024-03-06T11:38:00.347Z,9.13
2024-03-06T11:40:27.040Z,11.45
2024-03-06T11:42:53.874Z,10.13
2024-03-06T11:45:26.334Z,11.25
2024-03-06T11:48:03.693Z,13.32
2024-03-06T11:50:33.985Z,13.10
2024-03-06T11:53:00.874Z,15.27
2024-03-06T11:55:27.745Z,11.57
2024-03-06T11:57:55.307Z,8.75
2024-03-06T12:00:25.181Z,11.90
2024-03-06T12:02:52.851Z,8.02
2024-03-06T12:05:19.804Z,13.65
2024-03-06T12:07:51.211Z,9.90
2024-03-06T12:10:18.537Z,8.32
2024-03-06T12:12:46.069Z,10.63
2024-03-06T12:15:16.446Z,7.25
2024-03-06T12:17:48.736Z,14.73
2024-03-06T12:20:19.541Z,7.78
2024-03-06T12:22:51.057Z,9.50
2024-03-06T12:25:25.442Z,8.57
2024-03-06T12:27:53.159Z,7.93
2024-03-06T12:30:21.753Z,8.85
2024-03-06T12:33:05.233Z,11.27
2024-03-06T12:35:32.409Z,10.75
2024-03-06T12:37:59.646Z,10.98
2024-03-06T12:40:26.444Z,7.32
2024-03-06T12:42:56.381Z,8.65
2024-03-06T12:45:23.102Z,14.75
2024-03-06T12:47:50.842Z,13.80
2024-03-06T12:50:17.849Z,8.52
2024-03-06T12:52:46.976Z,9.07
2024-03-06T12:55:14.909Z,6.60
2024-03-06T12:57:41.879Z,8.88
2024-03-06T13:00:16.830Z,7.80
2024-03-06T13:02:45.339Z,9.68
2024-03-06T13:05:12.804Z,8.13
2024-03-06T13:07:40.452Z,10.48
2024-03-06T13:10:11.345Z,6.32
2024-03-06T13:12:38.973Z,8.25
2024-03-06T13:15:08.309Z,10.95
2024-03-06T13:17:35.594Z,9.70
2024-03-06T13:20:03.204Z,9.32
2024-03-06T13:22:29.937Z,10.18
2024-03-06T13:24:58.301Z,8.82
2024-03-06T13:27:25.079Z,7.70
2024-03-06T13:29:52.301Z,11.27
2024-03-06T13:32:19.050Z,11.07
2024-03-06T13:34:46.056Z,9.07
2024-03-06T13:37:12.810Z,8.90
2024-03-06T13:39:40.038Z,6.30
2024-03-06T13:42:07.431Z,7.05
2024-03-06T13:44:34.224Z,10.43
2024-03-06T13:47:00.998Z,8.80
2024-03-06T13:49:41.690Z,7.53
2024-03-06T13:52:14.556Z,7.30
2024-03-06T13:54:43.564Z,8.43
2024-03-06T13:57:10.721Z,8.43
2024-03-06T13:59:38.674Z,8.35
2024-03-06T14:02:06.365Z,7.28
2024-03-06T14:04:33.223Z,7.97
2024-03-06T14:07:00.108Z,7.30
2024-03-06T14:09:27.964Z,7.68
2024-03-06T14:11:55.464Z,12.30
2024-03-06T14:14:22.399Z,8.85
2024-03-06T14:16:50.180Z,7.13
2024-03-06T14:19:20.132Z,12.57
2024-03-06T14:21:50.448Z,6.35
2024-03-06T14:24:17.138Z,7.90
2024-03-06T14:26:43.860Z,12.23
2024-03-06T14:29:10.910Z,6.40
2024-03-06T14:31:37.890Z,6.18
2024-03-06T14:34:06.641Z,7.88
2024-03-06T14:36:35.136Z,13.93
2024-03-06T14:39:01.973Z,5.38
2024-03-06T14:41:29.381Z,6.82
2024-03-06T14:43:56.126Z,9.18
2024-03-06T14:46:22.957Z,11.88
2024-03-06T14:48:49.647Z,8.45
2024-03-06T14:51:16.586Z,21.45
2024-03-06T14:53:43.373Z,13.30
2024-03-06T14:56:11.968Z,12.18
2024-03-06T14:58:39.172Z,7.68
2024-03-06T15:01:06.287Z,6.22
2024-03-06T15:03:33.173Z,6.57
2024-03-06T15:06:00.119Z,6.20
2024-03-06T15:08:26.901Z,4.72
2024-03-06T15:10:55.078Z,8.02
2024-03-06T15:13:23.895Z,11.35
2024-03-06T15:15:51.611Z,9.95
2024-03-06T15:18:18.821Z,6.60
2024-03-06T15:20:45.872Z,6.78
2024-03-06T15:23:12.875Z,10.82
2024-03-06T15:25:39.647Z,9.60
2024-03-06T15:28:07.960Z,7.50
2024-03-06T15:30:36.457Z,6.22
2024-03-06T15:33:04.591Z,6.47
2024-03-06T15:35:31.949Z,13.57
2024-03-06T15:37:58.734Z,14.73
2024-03-06T15:40:26.032Z,9.80
2024-03-06T15:42:56.311Z,8.02
2024-03-06T15:45:24.525Z,6.72
2024-03-06T15:47:51.408Z,10.30
2024-03-06T15:50:18.221Z,7.93
2024-03-06T15:52:45.771Z,9.55
2024-03-06T15:55:12.581Z,14.80
2024-03-06T15:57:40.015Z,11.77
2024-03-06T16:00:10.288Z,13.15
2024-03-06T16:02:37.774Z,9.00
2024-03-06T16:05:05.016Z,13.05
2024-03-06T16:07:34.586Z,14.35
2024-03-06T16:10:02.662Z,17.20
2024-03-06T16:12:29.579Z,7.07
2024-03-06T16:14:56.422Z,10.70
2024-03-06T16:17:23.140Z,5.25
2024-03-06T16:19:49.817Z,6.30
2024-03-06T16:22:16.463Z,4.95
2024-03-06T16:24:43.947Z,11.07
2024-03-06T16:27:10.698Z,10.30
2024-03-06T16:29:37.560Z,13.50
2024-03-06T16:32:04.537Z,6.65
2024-03-06T16:34:32.735Z,10.75
2024-03-06T16:36:59.595Z,6.05
2024-03-06T16:39:26.353Z,11.30
2024-03-06T16:41:53.112Z,4.45
2024-03-06T16:44:20.747Z,8.18
2024-03-06T16:46:48.119Z,8.98
2024-03-06T16:49:14.972Z,6.40
2024-03-06T16:51:41.710Z,7.70
2024-03-06T16:54:08.704Z,5.30
2024-03-06T16:56:35.646Z,4.65
2024-03-06T16:59:02.437Z,5.72
2024-03-06T17:01:29.671Z,5.75
2024-03-06T17:03:56.414Z,5.00
2024-03-06T17:06:23.077Z,7.40
2024-03-06T17:08:50.180Z,10.88
2024-03-06T17:11:18.227Z,8.05
2024-03-06T17:13:45.506Z,8.23
2024-03-06T17:16:12.495Z,6.53
2024-03-06T17:18:39.316Z,5.53
2024-03-06T17:21:07.035Z,6.50
2024-03-06T17:23:33.821Z,6.35
2024-03-06T17:26:01.074Z,9.85
2024-03-06T17:28:28.038Z,7.25
2024-03-06T17:30:55.848Z,9.07
2024-03-06T17:33:22.752Z,8.13
2024-03-06T17:35:49.968Z,6.85
2024-03-06T17:38:17.729Z,7.80
2024-03-06T17:40:45.229Z,8.25
2024-03-06T17:43:15.871Z,5.78
2024-03-06T17:45:42.607Z,10.88
2024-03-06T17:48:09.867Z,9.10
2024-03-06T17:50:39.882Z,6.70
2024-03-06T17:53:08.362Z,6.78
2024-03-06T17:55:35.084Z,15.15
2024-03-06T17:58:05.655Z,9.18
2024-03-06T18:00:32.923Z,10.65
2024-03-06T18:03:00.247Z,6.68
2024-03-06T18:05:27.110Z,6.25
2024-03-06T18:07:53.765Z,7.63
2024-03-06T18:10:20.913Z,7.78
2024-03-06T18:12:47.692Z,8.27
2024-03-06T18:15:14.501Z,8.35
2024-03-06T18:17:41.522Z,7.25
2024-03-06T18:20:09.092Z,18.40
2024-03-06T18:22:37.047Z,8.85
2024-03-06T18:25:05.414Z,7.60
2024-03-06T18:27:33.015Z,10.88
2024-03-06T18:30:00.150Z,10.10
2024-03-06T18:32:27.276Z,9.20
2024-03-06T18:34:58.478Z,10.07
2024-03-06T18:37:25.832Z,11.68
2024-03-06T18:39:52.570Z,11.38
2024-03-06T18:42:21.671Z,9.13
2024-03-06T18:44:49.978Z,12.70
2024-03-06T18:47:17.126Z,12.88
2024-03-06T18:49:43.924Z,11.55
2024-03-06T18:52:11.529Z,11.00
2024-03-06T18:54:41.438Z,11.07
2024-03-06T18:57:09.577Z,17.48
2024-03-06T18:59:36.649Z,11.88
2024-03-06T19:02:04.244Z,13.75
2024-03-06T19:04:31.088Z,9.75
2024-03-06T19:06:58.730Z,15.70
2024-03-06T19:09:25.470Z,15.75
2024-03-06T19:11:53.170Z,12.35
2024-03-06T19:14:21.579Z,11.05
2024-03-06T19:16:48.495Z,12.25
2024-03-06T19:19:15.616Z,11.18
2024-03-06T19:21:42.489Z,16.02
2024-03-06T19:24:09.198Z,15.63
2024-03-06T19:26:36.191Z,16.75
2024-03-06T19:29:03.341Z,16.02
2024-03-06T19:31:31.950Z,17.63
2024-03-06T19:33:59.501Z,16.42
2024-03-06T19:36:26.234Z,12.55
2024-03-06T19:38:52.986Z,15.05
2024-03-06T19:41:20.518Z,17.05
2024-03-06T19:43:47.264Z,21.65
2024-03-06T19:46:14.105Z,16.13
2024-03-06T19:48:41.512Z,16.75
2024-03-06T19:51:09.409Z,18.45
2024-03-06T19:53:36.394Z,14.38
2024-03-06T19:56:03.971Z,16.60
2024-03-06T19:58:32.205Z,14.57
2024-03-06T20:00:58.860Z,22.55
2024-03-06T20:03:25.574Z,21.67
2024-03-06T20:05:52.360Z,15.73
2024-03-06T20:08:19.880Z,17.33
2024-03-06T20:10:46.722Z,19.65
2024-03-06T20:13:14.584Z,18.95
2024-03-06T20:15:41.233Z,21.42
2024-03-06T20:18:08.098Z,20.27
2024-03-06T20:20:34.968Z,23.58
2024-03-06T20:23:07.977Z,17.48
2024-03-06T20:25:35.685Z,25.85
2024-03-06T20:28:02.607Z,21.33
2024-03-06T20:30:29.419Z,22.92
2024-03-06T20:32:56.183Z,21.30
2024-03-06T20:35:24.914Z,24.33
2024-03-06T20:37:51.851Z,22.90
2024-03-06T20:40:18.833Z,30.85
2024-03-06T20:42:45.964Z,29.05
2024-03-06T20:45:14.148Z,28.05
2024-03-06T20:47:50.728Z,27.95
2024-03-06T20:50:17.586Z,34.13
2024-03-06T20:52:44.296Z,34.42
2024-03-06T20:55:11.043Z,37.72
2024-03-06T20:57:37.771Z,36.95
2024-03-06T21:00:04.970Z,31.90
2024-03-06T21:02:31.968Z,32.83
2024-03-06T21:04:58.653Z,30.70
2024-03-06T21:07:25.318Z,37.33
2024-03-06T21:09:51.948Z,33.65
2024-03-06T21:12:18.772Z,36.15
2024-03-06T21:14:45.532Z,34.92
2024-03-06T21:17:12.301Z,40.90
2024-03-06T21:19:39.056Z,39.80
2024-03-06T21:22:06.922Z,39.25
2024-03-06T21:24:35.773Z,30.67
2024-03-06T21:27:03.380Z,37.15
2024-03-06T21:29:31.689Z,34.10
2024-03-06T21:31:58.384Z,38.30
2024-03-06T21:34:25.075Z,39.28
2024-03-06T21:36:51.740Z,44.88
2024-03-06T21:39:18.399Z,40.30
2024-03-06T21:41:45.585Z,37.60
2024-03-06T21:44:12.318Z,43.17
2024-03-06T21:46:39.043Z,46.40
2024-03-06T21:49:07.753Z,41.28
2024-03-06T21:51:34.544Z,39.47
2024-03-06T21:54:01.212Z,42.58
2024-03-06T21:56:28.019Z,43.92
2024-03-06T21:58:56.996Z,41.10
2024-03-06T22:01:24.213Z,49.95
2024-03-06T22:03:50.966Z,43.17
2024-03-06T22:06:17.677Z,43.92
2024-03-06T22:08:44.395Z,45.15
2024-03-06T22:11:13.082Z,42.47
2024-03-06T22:13:39.960Z,51.67
2024-03-06T22:16:06.904Z,47.22
2024-03-06T22:18:33.646Z,52.42
2024-03-06T22:21:00.419Z,49.53
2024-03-06T22:23:29.734Z,37.47
2024-03-06T22:25:56.447Z,43.78
2024-03-06T22:28:23.206Z,44.88
2024-03-06T22:30:49.836Z,58.05
2024-03-06T22:33:16.895Z,56.33
2024-03-06T22:35:43.792Z,53.80
2024-03-06T22:38:10.602Z,43.63
2024-03-06T22:40:37.695Z,49.15
2024-03-06T22:43:06.176Z,47.65
2024-03-06T22:45:33.071Z,59.92
2024-03-06T22:48:00.097Z,46.42
2024-03-06T22:50:27.316Z,52.67
2024-03-06T22:52:54.052Z,53.17
2024-03-06T22:55:20.957Z,48.63
2024-03-06T22:57:47.602Z,59.28
2024-03-06T23:00:30.216Z,59.45
2024-03-06T23:03:00.646Z,57.35
2024-03-06T23:05:27.562Z,45.95
2024-03-06T23:07:55.087Z,52.97
2024-03-06T23:10:21.840Z,47.83
2024-03-06T23:12:49.062Z,59.15
2024-03-06T23:15:16.352Z,52.55
2024-03-06T23:17:50.161Z,60.88
2024-03-06T23:20:17.741Z,54.42
2024-03-06T23:22:46.155Z,61.45
2024-03-06T23:25:14.770Z,72.00
2024-03-06T23:27:45.449Z,51.50
2024-03-06T23:30:14.280Z,62.38
2024-03-06T23:32:42.073Z,57.35
2024-03-06T23:35:12.114Z,57.95
2024-03-06T23:37:38.840Z,57.15
2024-03-06T23:40:16.113Z,58.72
2024-03-06T23:42:44.430Z,75.88
2024-03-06T23:45:12.463Z,59.35
2024-03-06T23:47:40.135Z,69.60
2024-03-06T23:50:08.906Z,62.92
2024-03-06T23:52:36.358Z,61.90
2024-03-06T23:55:03.626Z,86.18
2024-03-06T23:57:30.617Z,64.55
2024-03-06T23:59:58.647Z,66.50
